createdAt,value
2023-05-08T00:04:16.041Z,10.53
2023-05-08T00:09:23.726Z,11.37
2023-05-08T00:14:30.442Z,11.87
2023-05-08T00:19:37.647Z,11.57
2023-05-08T00:24:44.578Z,12.77
2023-05-08T00:29:51.756Z,11.83
2023-05-08T00:34:58.868Z,12.07
2023-05-08T00:40:06.737Z,12.23
2023-05-08T00:45:13.647Z,11.73
2023-05-08T00:50:21.525Z,12.90
2023-05-08T00:55:28.749Z,13.53
2023-05-08T01:00:36.122Z,13.47
2023-05-08T01:05:43.842Z,14.90
2023-05-08T01:11:00.955Z,14.57
2023-05-08T01:16:27.425Z,14.00
2023-05-08T01:21:56.701Z,13.47
2023-05-08T01:27:44.343Z,12.87
2023-05-08T01:33:03.979Z,11.50
2023-05-08T01:38:20.966Z,10.97
2023-05-08T01:43:50.061Z,12.77
2023-05-08T01:49:09.958Z,11.17
2023-05-08T01:54:23.245Z,11.67
2023-05-08T01:59:31.918Z,10.30
2023-05-08T02:04:40.862Z,12.73
2023-05-08T02:09:48.676Z,15.70
2023-05-08T02:14:57.397Z,13.63
2023-05-08T02:20:08.045Z,11.03
2023-05-08T02:25:17.431Z,10.23
2023-05-08T02:30:27.387Z,11.00
2023-05-08T02:35:35.862Z,10.50
2023-05-08T02:40:46.913Z,12.93
2023-05-08T02:46:18.021Z,9.90
2023-05-08T02:51:29.334Z,11.20
2023-05-08T02:56:43.408Z,12.67
2023-05-08T03:01:57.729Z,11.97
2023-05-08T03:07:07.883Z,12.53
2023-05-08T03:12:22.245Z,12.53
2023-05-08T03:17:32.500Z,12.20
2023-05-08T03:22:40.760Z,12.07
2023-05-08T03:27:49.137Z,11.40
2023-05-08T03:32:58.852Z,10.20
2023-05-08T03:38:07.169Z,10.33
2023-05-08T03:43:14.309Z,10.20
2023-05-08T03:48:22.932Z,12.27
2023-05-08T03:53:31.175Z,10.13
2023-05-08T03:58:45.649Z,10.30
2023-05-08T04:03:59.915Z,10.87
2023-05-08T04:09:35.303Z,11.40
2023-05-08T04:14:46.626Z,13.27
2023-05-08T04:19:57.740Z,11.80
2023-05-08T04:25:08.291Z,12.03
2023-05-08T04:30:16.658Z,13.73
2023-05-08T04:35:24.306Z,13.30
2023-05-08T04:40:31.400Z,11.83
2023-05-08T04:45:38.266Z,12.03
2023-05-08T04:50:45.158Z,10.83
2023-05-08T04:55:52.180Z,10.73
2023-05-08T05:00:59.109Z,9.50
2023-05-08T05:06:06.115Z,8.60
2023-05-08T05:11:12.824Z,8.37
2023-05-08T05:16:20.236Z,8.97
2023-05-08T05:21:28.344Z,7.87
2023-05-08T05:26:36.854Z,7.90
2023-05-08T05:31:44.021Z,8.50
2023-05-08T05:36:51.413Z,8.17
2023-05-08T05:41:58.673Z,8.70
2023-05-08T05:47:17.527Z,8.53
2023-05-08T05:52:24.592Z,7.80
2023-05-08T05:57:31.875Z,7.30
2023-05-08T06:02:41.162Z,9.97
2023-05-08T06:07:48.254Z,10.23
2023-05-08T06:12:55.355Z,10.00
2023-05-08T06:18:02.563Z,11.27
2023-05-08T06:23:09.936Z,12.53
2023-05-08T06:28:16.884Z,13.87
2023-05-08T06:33:27.285Z,16.27
2023-05-08T06:38:34.320Z,9.53
2023-05-08T06:43:41.531Z,12.07
2023-05-08T06:48:48.532Z,10.47
2023-05-08T06:53:55.904Z,12.33
2023-05-08T06:59:15.548Z,13.97
2023-05-08T07:04:24.214Z,12.63
2023-05-08T07:09:31.681Z,15.00
2023-05-08T07:14:39.917Z,14.53
2023-05-08T07:19:48.671Z,10.80
2023-05-08T07:24:55.681Z,13.50
2023-05-08T07:30:04.664Z,14.50
2023-05-08T07:35:13.437Z,12.83
2023-05-08T07:40:20.872Z,15.20
2023-05-08T07:45:28.112Z,18.20
2023-05-08T07:50:56.892Z,32.27
2023-05-08T07:56:02.884Z,27.63
2023-05-08T08:01:10.003Z,30.17
2023-05-08T08:06:18.716Z,38.90
2023-05-08T08:11:25.912Z,43.87
2023-05-08T08:16:32.847Z,17.23
2023-05-08T08:21:44.742Z,16.77
2023-05-08T08:26:52.128Z,15.83
2023-05-08T08:31:59.592Z,12.93
2023-05-08T08:37:08.504Z,20.57
2023-05-08T08:42:16.285Z,23.03
2023-05-08T08:47:34.205Z,22.47
2023-05-08T08:53:03.946Z,22.90
2023-05-08T08:58:27.140Z,18.67
2023-05-08T09:03:34.797Z,24.63
2023-05-08T09:08:43.295Z,25.47
2023-05-08T09:13:52.141Z,21.90
2023-05-08T09:18:59.334Z,32.17
2023-05-08T09:24:07.967Z,23.60
2023-05-08T09:29:22.824Z,24.37
2023-05-08T09:34:33.656Z,20.03
2023-05-08T09:39:42.445Z,29.33
2023-05-08T09:44:58.134Z,19.07
2023-05-08T09:50:10.894Z,35.73
2023-05-08T09:55:18.082Z,18.27
2023-05-08T10:00:28.095Z,18.93
2023-05-08T10:05:59.049Z,23.03
2023-05-08T10:11:22.780Z,32.50
2023-05-08T10:16:32.262Z,15.20
2023-05-08T10:21:41.014Z,20.13
2023-05-08T10:27:17.853Z,22.10
2023-05-08T10:32:26.790Z,16.37
2023-05-08T10:37:36.416Z,16.40
2023-05-08T10:42:43.932Z,12.37
2023-05-08T10:48:19.319Z,19.03
2023-05-08T10:53:59.679Z,16.50
2023-05-08T10:59:07.732Z,14.20
2023-05-08T11:04:25.613Z,20.93
2023-05-08T11:09:46.136Z,18.67
2023-05-08T11:15:09.636Z,17.13
2023-05-08T11:20:16.613Z,17.67
2023-05-08T11:25:28.150Z,19.47
2023-05-08T11:30:42.181Z,21.10
2023-05-08T11:36:02.763Z,19.43
2023-05-08T11:41:23.943Z,16.43
2023-05-08T11:46:38.070Z,17.07
2023-05-08T11:51:47.152Z,17.73
2023-05-08T11:56:55.877Z,18.13
2023-05-08T12:02:09.123Z,16.13
2023-05-08T12:07:18.398Z,20.77
2023-05-08T12:12:25.241Z,18.33
2023-05-08T12:17:32.276Z,19.97
2023-05-08T12:22:39.849Z,20.60
2023-05-08T12:27:50.506Z,18.10
2023-05-08T12:32:58.628Z,25.33
2023-05-08T12:38:08.352Z,21.53
2023-05-08T12:43:16.484Z,18.67
2023-05-08T12:48:23.724Z,17.17
2023-05-08T12:53:33.371Z,17.67
2023-05-08T12:58:41.350Z,17.30
2023-05-08T13:04:01.038Z,19.40
2023-05-08T13:09:00.245Z,21.07
2023-05-08T13:14:07.319Z,20.27
2023-05-08T13:19:15.950Z,19.27
2023-05-08T13:24:23.099Z,20.57
2023-05-08T13:29:30.177Z,20.43
2023-05-08T13:34:41.496Z,29.87
2023-05-08T13:39:46.412Z,23.13
2023-05-08T13:44:53.211Z,29.60
2023-05-08T13:50:00.694Z,20.83
2023-05-08T13:55:09.969Z,19.67
2023-05-08T14:00:18.866Z,20.40
2023-05-08T14:05:26.005Z,18.90
2023-05-08T14:10:33.288Z,21.40
2023-05-08T14:15:40.809Z,21.23
2023-05-08T14:20:56.558Z,20.83
2023-05-08T14:25:57.075Z,21.73
2023-05-08T14:31:04.455Z,19.73
2023-05-08T14:36:12.161Z,19.77
2023-05-08T14:41:19.323Z,20.20
2023-05-08T14:46:26.468Z,19.03
2023-05-08T14:51:33.813Z,19.17
2023-05-08T14:56:47.252Z,18.60
2023-05-08T15:01:49.614Z,19.73
2023-05-08T15:06:56.437Z,19.50
2023-05-08T15:12:04.140Z,19.97
2023-05-08T15:17:13.002Z,19.03
2023-05-08T15:22:19.957Z,19.43
2023-05-08T15:27:26.779Z,18.63
2023-05-08T15:32:33.651Z,18.30
2023-05-08T15:37:41.270Z,17.17
2023-05-08T15:42:48.086Z,16.73
2023-05-08T15:47:55.927Z,16.67
2023-05-08T15:53:02.883Z,18.00
2023-05-08T15:58:09.733Z,17.70
2023-05-08T16:03:16.942Z,15.97
2023-05-08T16:08:25.027Z,16.63
2023-05-08T16:13:32.484Z,16.93
2023-05-08T16:18:39.368Z,15.57
2023-05-08T16:23:46.436Z,17.17
2023-05-08T16:28:53.235Z,17.43
2023-05-08T16:34:00.127Z,18.03
2023-05-08T16:39:07.255Z,17.53
2023-05-08T16:44:16.030Z,17.50
2023-05-08T16:49:22.903Z,17.53
2023-05-08T16:54:29.786Z,17.23
2023-05-08T16:59:37.093Z,17.33
2023-05-08T17:04:45.597Z,16.63
2023-05-08T17:09:55.861Z,16.10
2023-05-08T17:15:02.834Z,16.77
2023-05-08T17:20:11.861Z,14.90
2023-05-08T17:25:19.110Z,15.37
2023-05-08T17:30:26.653Z,13.33
2023-05-08T17:35:34.171Z,12.53
2023-05-08T17:40:41.126Z,11.97
2023-05-08T17:45:48.159Z,12.60
2023-05-08T17:50:55.472Z,13.43
2023-05-08T17:56:02.289Z,11.93
2023-05-08T18:01:09.447Z,13.23
2023-05-08T18:06:20.773Z,11.50
2023-05-08T18:11:28.975Z,12.03
2023-05-08T18:16:36.135Z,11.53
2023-05-08T18:21:43.211Z,11.30
2023-05-08T18:26:52.480Z,11.67
2023-05-08T18:31:59.366Z,11.67
2023-05-08T18:37:06.314Z,12.90
2023-05-08T18:42:14.958Z,11.57
2023-05-08T18:47:21.882Z,11.10
2023-05-08T18:52:28.976Z,11.80
2023-05-08T18:57:43.476Z,12.40
2023-05-08T19:02:55.565Z,11.07
2023-05-08T19:08:03.546Z,10.33
2023-05-08T19:13:10.338Z,11.27
2023-05-08T19:18:18.372Z,10.03
2023-05-08T19:23:25.141Z,9.53
2023-05-08T19:28:32.633Z,9.40
2023-05-08T19:33:39.560Z,9.63
2023-05-08T19:38:46.720Z,9.23
2023-05-08T19:43:53.635Z,9.63
2023-05-08T19:49:01.109Z,10.03
2023-05-08T19:54:08.711Z,10.17
2023-05-08T19:59:16.132Z,9.40
2023-05-08T20:04:24.520Z,10.60
2023-05-08T20:09:32.128Z,10.63
2023-05-08T20:14:39.094Z,10.93
2023-05-08T20:19:46.306Z,10.00
2023-05-08T20:24:53.261Z,10.03
2023-05-08T20:30:00.212Z,10.20
2023-05-08T20:35:07.902Z,11.13
2023-05-08T20:40:15.454Z,11.50
2023-05-08T20:45:22.512Z,10.77
2023-05-08T20:50:29.544Z,11.20
2023-05-08T20:55:36.575Z,11.67
2023-05-08T21:00:43.800Z,11.20
2023-05-08T21:05:52.646Z,11.13
2023-05-08T21:10:59.673Z,10.97
2023-05-08T21:16:08.786Z,11.40
2023-05-08T21:21:20.993Z,12.53
2023-05-08T21:26:28.035Z,15.13
2023-05-08T21:31:37.797Z,18.37
2023-05-08T21:36:45.355Z,18.10
2023-05-08T21:41:52.656Z,18.03
2023-05-08T21:46:59.815Z,18.13
2023-05-08T21:52:07.116Z,16.67
2023-05-08T21:57:15.581Z,16.97
2023-05-08T22:02:23.223Z,16.30
2023-05-08T22:07:30.272Z,15.63
2023-05-08T22:12:37.550Z,14.87
2023-05-08T22:17:48.211Z,12.70
2023-05-08T22:22:55.317Z,11.50
2023-05-08T22:28:04.142Z,14.87
2023-05-08T22:33:11.229Z,15.00
2023-05-08T22:38:18.157Z,13.50
2023-05-08T22:43:25.483Z,15.07
2023-05-08T22:48:33.473Z,14.90
2023-05-08T22:53:40.378Z,15.80
2023-05-08T22:58:47.234Z,16.43
2023-05-08T23:03:57.146Z,16.87
2023-05-08T23:09:04.776Z,17.97
2023-05-08T23:14:12.891Z,16.97
2023-05-08T23:19:20.081Z,18.27
2023-05-08T23:24:28.110Z,17.07
2023-05-08T23:29:34.930Z,19.77
2023-05-08T23:34:43.894Z,20.43
2023-05-08T23:39:51.106Z,20.23
2023-05-08T23:44:59.239Z,21.03
2023-05-08T23:50:08.542Z,19.27
2023-05-08T23:55:15.764Z,19.57
